• Join FlightAware (Why Join?)
  • Login
  • US Flag 
07:23AM EDT


 

Airport Tracker/Info


-or-


 

Live Flight TrackerFlight Track Log ✈ FLG3800 ✈ 26-Apr-2013 ✈ KAZO - KDTW

Flight Track Log - Related Links

Times and Time Zones

All times are in EDT time to prevent confusion due to time zone crossing. See the FLG3800 flight status page for this flight to view local times or setup timezone preferences in your user account.

Time Position Orientation Groundspeed Altitude Reporting Facility
EDT Latitude Longitude Course Direction KTS MPH feet Rate Location/Type
08:14AM 42.2072 -85.5394 105° East 149 171 2,500  Level Chicago Center
08:15AM 42.1806 -85.4722 118° Southeast 207 238 4,600 2,100 Climbing Chicago Center
08:16AM 42.1644 -85.3703 102° East 260 299 6,900 2,580 Climbing Chicago Center
08:17AM 42.1544 -85.3089 102° East 254 292 8,700 2,580 Climbing Cleveland Center
08:18AM 42.1292 -85.0750 106° East  Level FlightAware Approximate
08:18AM 42.1361 -85.1956 102° East 286 329 10,900  Level Cleveland Center
08:19AM 42.0979 -84.9894 105° East  Level FlightAware Approximate
08:19AM 42.1161 -85.0681 102° East 321 369 10,900  Level Cleveland Center
08:20AM 42.0769 -84.8840 105° East  Level FlightAware Approximate
08:20AM 42.0922 -84.9319 103° East 336 387 11,000  Level Cleveland Center
08:21AM 42.0719 -84.8075 102° East 341 392 12,000 480 Climbing Cleveland Center
08:22AM 42.0261 -84.6897 118° Southeast 341 392 12,000  Level Cleveland Center
08:23AM 41.9844 -84.5697 115° Southeast 346 398 12,000  Level Cleveland Center
08:24AM 41.9489 -84.4503 112° Southeast 346 398 12,000  Level Cleveland Center
08:25AM 41.9114 -84.3281 112° Southeast 346 398 12,000  Level Cleveland Center
08:26AM 41.8772 -84.2200 113° Southeast 341 392 12,000  Level Cleveland Center
08:26AM 41.8508 -84.1319 112° Southeast 350 403 12,000  Level Cleveland Center
08:27AM 41.8414 -84.1008 112° Southeast 341 392 12,000  Level Cleveland Center
08:27AM 41.8442 -84.0117 88° East 325 374 12,000  Level Cleveland Center
08:28AM 41.8511 -83.9869 69° East 317 365 12,000  Level Cleveland Center
08:29AM 41.8969 -83.9197 47° Northeast 308 354 12,000  Level Cleveland Center
08:29AM 41.9058 -83.8978 61° Northeast 285 328 12,000  Level Cleveland Center
08:30AM 41.9600 -83.8225 46° Northeast 309 356 12,000  Level Cleveland Center
08:31AM 42.0147 -83.7331 51° Northeast 309 356 12,000  Level Cleveland Center
08:32AM 42.0692 -83.6406 52° Northeast 313 360 12,000  Level Cleveland Center
08:33AM 42.0894 -83.5100 78° East 329 379 12,000  Level Cleveland Center
08:34AM 42.1064 -83.4156 76° East 257 296 12,000 -180 Level Cleveland Center
08:34AM 42.1067 -83.4017 88° East 301 346 11,800 -840 Descending Cleveland Center
08:35AM 42.1339 -83.3106 68° East 250 288 11,000 -960 Descending Cleveland Center
08:36AM 42.1567 -83.2303 69° East 250 288 10,100 -1,320 Descending Cleveland Center
08:37AM 42.2036 -83.1761 41° Northeast 221 254 8,500 -1,560 Descending Cleveland Center
08:38AM 42.2711 -83.1481 17° North 227 261 6,800 -1,500 Descending Cleveland Center
08:39AM 42.3258 -83.1219 19° North 229 264 5,500 -1,020 Descending Cleveland Center
08:40AM 42.3625 -83.1572 325° Northwest 188 216 5,000 -600 Descending Cleveland Center